createdAt,value
2018-07-12T09:30:20.645Z,22.03
2018-07-12T09:32:48.764Z,21.94
2018-07-12T09:35:16.854Z,21.80
2018-07-12T09:37:44.944Z,21.92
2018-07-12T09:40:13.006Z,22.02
2018-07-12T09:42:41.093Z,22.29
2018-07-12T09:45:09.160Z,22.64
2018-07-12T09:47:37.575Z,21.85
2018-07-12T09:50:05.648Z,21.50
2018-07-12T09:52:34.621Z,21.72
2018-07-12T09:55:03.186Z,22.31
2018-07-12T09:57:43.216Z,21.97
2018-07-12T10:00:11.612Z,21.98
2018-07-12T10:02:44.994Z,22.23
2018-07-12T10:05:18.431Z,22.64
2018-07-12T10:07:50.550Z,22.53
2018-07-12T10:10:19.743Z,22.26
2018-07-12T10:12:53.487Z,21.92
2018-07-12T10:15:26.763Z,21.85
2018-07-12T10:18:00.295Z,21.71
2018-07-12T10:20:28.367Z,21.50
2018-07-12T10:22:56.472Z,21.45
2018-07-12T10:25:24.547Z,21.25
2018-07-12T10:27:52.621Z,21.27
2018-07-12T10:30:20.697Z,21.46
2018-07-12T10:32:48.764Z,21.72
2018-07-12T10:35:16.840Z,22.13
2018-07-12T10:37:44.912Z,22.76
2018-07-12T10:40:13.000Z,23.10
2018-07-12T10:42:41.471Z,23.45
2018-07-12T10:45:09.544Z,23.69
2018-07-12T10:47:37.628Z,23.85
2018-07-12T10:50:05.814Z,23.31
2018-07-12T10:52:33.876Z,23.12
2018-07-12T10:55:01.982Z,23.51
2018-07-12T10:57:30.068Z,23.67
2018-07-12T10:59:58.153Z,23.65
2018-07-12T11:02:26.226Z,23.08
2018-07-12T11:04:54.373Z,23.71
2018-07-12T11:07:22.431Z,23.82
2018-07-12T15:11:27.491Z,26.43
2018-07-12T15:13:59.017Z,25.96
2018-07-12T15:16:27.633Z,26.36
2018-07-12T15:21:35.118Z,26.99
2018-07-12T15:24:03.353Z,27.03
2018-07-12T15:26:31.737Z,27.18
2018-07-12T15:28:59.808Z,27.05
2018-07-12T15:31:28.320Z,27.00
2018-07-12T15:33:56.362Z,26.88
2018-07-12T15:36:24.435Z,27.34
2018-07-12T15:38:52.520Z,27.11
2018-07-12T15:41:20.665Z,27.22
2018-07-12T15:43:48.756Z,26.83
2018-07-12T15:46:16.828Z,26.99
2018-07-12T15:48:44.927Z,27.10
2018-07-12T15:51:13.009Z,26.51
2018-07-12T15:53:41.076Z,26.20
2018-07-12T15:56:09.166Z,26.09
2018-07-12T15:58:38.041Z,25.96
2018-07-12T16:01:06.129Z,25.53
2018-07-12T16:03:34.189Z,25.86
2018-07-12T16:06:02.274Z,25.69
2018-07-12T16:08:30.397Z,25.41
2018-07-12T16:10:58.548Z,25.39
2018-07-12T16:13:26.697Z,25.49
2018-07-12T16:15:54.764Z,26.03
2018-07-12T16:21:15.917Z,26.43
2018-07-12T16:23:43.980Z,25.67
2018-07-12T16:26:12.077Z,25.64
2018-07-12T16:28:40.140Z,25.56
2018-07-12T16:31:09.007Z,25.57
2018-07-12T16:33:37.340Z,25.47
2018-07-12T16:36:05.967Z,25.37
2018-07-12T16:38:34.068Z,25.63
2018-07-12T16:41:02.157Z,25.69
2018-07-12T16:43:30.239Z,25.84
2018-07-12T16:45:58.308Z,25.87
2018-07-12T16:48:26.365Z,25.02
2018-07-12T16:50:54.488Z,24.99
2018-07-12T16:53:22.717Z,25.33
2018-07-12T16:55:50.804Z,25.32
2018-07-12T16:58:18.883Z,24.99
2018-07-12T17:00:46.967Z,25.17
2018-07-12T17:03:15.053Z,25.38
2018-07-12T17:05:43.149Z,25.51
2018-07-12T17:08:11.276Z,25.59
2018-07-12T17:10:40.029Z,25.43
2018-07-12T17:13:08.097Z,26.55
2018-07-12T17:15:39.228Z,26.36
2018-07-12T17:18:07.287Z,26.07
2018-07-12T17:20:36.371Z,25.61
2018-07-12T17:23:04.471Z,25.29
2018-07-12T17:25:32.552Z,25.09
2018-07-12T17:28:00.660Z,25.18
2018-07-12T17:30:28.732Z,24.92
2018-07-12T17:32:56.824Z,24.73
2018-07-12T17:35:24.896Z,25.09
2018-07-12T17:37:52.983Z,25.25
2018-07-12T17:40:21.056Z,25.07
2018-07-12T17:42:50.093Z,24.90
2018-07-12T17:45:18.242Z,24.70
2018-07-12T17:47:46.390Z,24.69
2018-07-12T17:50:14.445Z,24.44
2018-07-12T17:52:42.524Z,24.31
2018-07-12T17:55:11.224Z,24.43
2018-07-12T17:57:39.350Z,24.64
2018-07-12T18:00:07.427Z,24.42
2018-07-12T18:02:35.532Z,24.30
2018-07-12T18:05:03.654Z,24.23
2018-07-12T18:07:31.737Z,23.98
2018-07-12T18:09:59.841Z,23.71
2018-07-12T18:12:28.255Z,23.66
2018-07-12T18:14:56.343Z,23.61
2018-07-12T18:17:24.424Z,23.61
2018-07-12T18:19:52.517Z,23.63
2018-07-12T18:22:20.622Z,23.43
2018-07-12T18:24:48.700Z,23.38
2018-07-12T18:27:16.785Z,23.38
2018-07-12T18:29:44.874Z,23.29
2018-07-12T18:32:13.001Z,23.25
2018-07-12T18:34:41.076Z,23.18
2018-07-12T18:37:09.172Z,23.14
2018-07-12T18:39:37.304Z,23.00
2018-07-12T18:42:05.380Z,22.96
2018-07-12T18:44:33.481Z,22.91
2018-07-12T18:47:01.569Z,22.78
2018-07-12T18:49:29.921Z,22.79
2018-07-12T22:02:44.554Z,16.74
2018-07-12T22:05:12.781Z,16.70
2018-07-12T22:08:22.300Z,16.63
2018-07-12T22:10:52.124Z,16.49
2018-07-12T22:13:21.413Z,16.46
2018-07-12T22:15:49.992Z,16.44
2018-07-12T22:18:18.300Z,16.45
2018-07-12T22:20:46.482Z,16.46
2018-07-12T22:23:14.721Z,16.41
2018-07-12T22:25:42.980Z,16.28
2018-07-12T22:28:11.367Z,16.28
2018-07-12T22:33:22.197Z,16.10
2018-07-12T22:35:50.648Z,16.13
2018-07-12T22:38:18.953Z,16.06
2018-07-12T22:40:48.062Z,16.05
2018-07-12T22:43:16.345Z,16.08
2018-07-12T22:45:45.328Z,15.99
2018-07-12T22:57:12.142Z,16.01
2018-07-12T22:59:40.534Z,15.99
2018-07-12T23:02:08.824Z,15.88
2018-07-12T23:04:37.317Z,15.80
2018-07-12T23:07:05.822Z,15.81
2018-07-12T23:09:34.128Z,15.74
2018-07-12T23:15:05.009Z,15.87
2018-07-12T23:41:58.245Z,15.24
2018-07-12T23:44:27.464Z,15.29
2018-07-12T23:46:55.918Z,15.48
2018-07-12T23:49:25.314Z,15.61
